Time;durP1;ratioP1;P1;durP2;ratioP2;P2;SDS_P1;SDS_P2;PMS_P1;PMS_P2;Temp;Humidity;BMP_temperature;BMP_pressure;BME280_temperature;BME280_humidity;BME280_pressure;Samples;Min_cycle;Max_cycle;Signal;HPM_P1;HPM_P2
2021/05/30 00:01:25;;;;;;;8.18;6.43;;;13.70;99.90;;;;;;5051277;28;20107;-68
2021/05/30 00:03:51;;;;;;;9.80;6.43;;;13.70;99.90;;;;;;5052477;28;20055;-66
2021/05/30 00:06:17;;;;;;;10.50;7.10;;;13.70;99.90;;;;;;5069656;28;20064;-67
2021/05/30 00:08:42;;;;;;;9.07;7.03;;;13.70;99.90;;;;;;5069682;28;20361;-68
2021/05/30 00:11:09;;;;;;;10.23;7.90;;;13.60;99.90;;;;;;5070198;28;20044;-70
2021/05/30 00:13:35;;;;;;;9.32;6.55;;;13.60;99.90;;;;;;5069938;28;20111;-68
2021/05/30 00:16:00;;;;;;;9.80;7.72;;;13.60;99.90;;;;;;5052036;28;20426;-68
2021/05/30 00:18:26;;;;;;;9.02;7.65;;;13.60;99.90;;;;;;5069165;28;20428;-66
2021/05/30 00:20:51;;;;;;;9.38;6.95;;;13.60;99.90;;;;;;5069866;28;20036;-66
2021/05/30 00:23:17;;;;;;;11.35;7.25;;;13.60;99.90;;;;;;5051330;28;20112;-67
2021/05/30 00:25:43;;;;;;;13.27;6.53;;;13.50;99.90;;;;;;5052118;28;20028;-67
2021/05/30 00:28:09;;;;;;;10.45;7.30;;;13.50;99.90;;;;;;5051497;28;20047;-67
2021/05/30 00:30:35;;;;;;;10.75;7.30;;;13.40;99.90;;;;;;5068988;28;20041;-66
2021/05/30 00:33:01;;;;;;;9.02;7.00;;;13.40;99.90;;;;;;5069815;28;20154;-66
2021/05/30 00:35:27;;;;;;;8.95;7.45;;;13.30;99.90;;;;;;5069091;28;20074;-67
2021/05/30 00:37:52;;;;;;;8.95;7.07;;;13.40;99.90;;;;;;5051319;28;20024;-67
2021/05/30 00:40:18;;;;;;;9.65;6.53;;;13.40;99.90;;;;;;5069356;28;20038;-67
2021/05/30 00:42:44;;;;;;;9.35;7.32;;;13.30;99.90;;;;;;5069997;28;20025;-67
2021/05/30 00:45:13;;;;;;;11.02;6.68;;;13.10;99.90;;;;;;5069897;28;20038;-68
2021/05/30 00:47:39;;;;;;;11.50;7.70;;;13.20;99.90;;;;;;5051561;28;20036;-66
2021/05/30 00:50:06;;;;;;;9.55;7.45;;;13.20;99.90;;;;;;5051539;28;20060;-66
2021/05/30 00:52:32;;;;;;;8.93;7.07;;;13.20;99.90;;;;;;5068463;28;20033;-66
2021/05/30 00:55:00;;;;;;;12.63;8.13;;;13.10;99.90;;;;;;5070153;28;20028;-66
2021/05/30 00:57:26;;;;;;;12.52;9.55;;;13.10;99.90;;;;;;5051075;28;20059;-66
2021/05/30 00:59:52;;;;;;;12.95;8.43;;;13.10;99.90;;;;;;5070141;28;20060;-66
2021/05/30 01:02:17;;;;;;;21.33;14.60;;;13.10;99.90;;;;;;5068521;28;20115;-67
2021/05/30 01:04:46;;;;;;;11.32;8.85;;;13.10;99.90;;;;;;5069448;28;20508;-66
2021/05/30 01:07:11;;;;;;;11.48;8.18;;;13.00;99.90;;;;;;5069303;28;20033;-71
2021/05/30 01:09:37;;;;;;;12.75;8.63;;;13.00;99.90;;;;;;5069136;28;20047;-66
2021/05/30 01:12:04;;;;;;;9.95;8.07;;;12.90;99.90;;;;;;5054900;28;20032;-66
2021/05/30 01:14:31;;;;;;;9.77;7.60;;;12.90;99.90;;;;;;5072659;28;20043;-66
2021/05/30 01:16:57;;;;;;;9.18;7.43;;;12.90;99.90;;;;;;5073887;28;20086;-67
2021/05/30 01:19:27;;;;;;;12.02;8.80;;;12.80;99.90;;;;;;5054494;28;20033;-67
2021/05/30 01:21:57;;;;;;;15.65;10.57;;;12.80;99.90;;;;;;5073359;28;20465;-67
2021/05/30 01:24:23;;;;;;;12.27;9.48;;;12.80;99.90;;;;;;5054785;28;20527;-67
2021/05/30 01:26:48;;;;;;;11.40;8.48;;;12.70;99.90;;;;;;5055538;28;20139;-68
2021/05/30 01:29:14;;;;;;;10.35;8.10;;;12.70;99.90;;;;;;5072962;28;20041;-72
2021/05/30 01:31:40;;;;;;;12.02;8.40;;;12.60;99.90;;;;;;5073046;28;20058;-66
2021/05/30 01:34:05;;;;;;;9.20;7.63;;;12.50;99.90;;;;;;5072878;28;20165;-66
2021/05/30 01:36:31;;;;;;;13.07;8.65;;;12.60;99.90;;;;;;5054704;28;20119;-66
2021/05/30 01:38:57;;;;;;;10.02;7.88;;;12.70;99.90;;;;;;5054792;28;20449;-67
2021/05/30 01:41:23;;;;;;;12.45;8.52;;;12.70;99.90;;;;;;5072231;28;20113;-67
2021/05/30 01:43:48;;;;;;;10.00;7.93;;;12.60;99.90;;;;;;5073246;28;20382;-66
2021/05/30 01:46:14;;;;;;;8.65;7.50;;;12.60;99.90;;;;;;5054993;28;20025;-72
2021/05/30 01:48:40;;;;;;;10.35;8.18;;;12.70;99.90;;;;;;5054445;28;20032;-67
2021/05/30 01:51:05;;;;;;;11.55;7.75;;;12.70;99.90;;;;;;5054436;28;20056;-67
2021/05/30 01:59:08;;;;;;;9.25;7.50;;;12.60;99.90;;;;;;5072957;28;20071;-69
2021/05/30 02:01:35;;;;;;;15.88;7.95;;;12.60;99.90;;;;;;5053561;28;20119;-69
2021/05/30 02:04:04;;;;;;;11.48;8.18;;;12.60;99.90;;;;;;5054834;28;20060;-69
2021/05/30 02:06:31;;;;;;;10.65;8.05;;;12.50;99.90;;;;;;5072119;28;20124;-68
2021/05/30 02:08:58;;;;;;;14.05;8.60;;;12.50;99.90;;;;;;5054496;28;20036;-68
2021/05/30 02:11:24;;;;;;;10.45;7.47;;;12.40;99.90;;;;;;5053944;28;20068;-68
2021/05/30 02:13:50;;;;;;;8.70;7.03;;;12.50;99.90;;;;;;5054727;28;20493;-68
2021/05/30 02:16:16;;;;;;;10.48;8.18;;;12.40;99.90;;;;;;5072740;28;20048;-69
2021/05/30 02:18:42;;;;;;;9.82;7.53;;;12.50;99.90;;;;;;5072514;28;20039;-68
2021/05/30 02:21:07;;;;;;;12.40;7.82;;;12.40;99.90;;;;;;5072394;28;20420;-67
2021/05/30 02:23:34;;;;;;;11.45;7.90;;;12.30;99.90;;;;;;5052505;28;20127;-67
2021/05/30 02:26:03;;;;;;;16.05;8.48;;;12.20;99.90;;;;;;5071947;28;20105;-68
2021/05/30 02:28:29;;;;;;;11.35;8.20;;;12.40;99.90;;;;;;5071579;28;20028;-68
2021/05/30 02:30:54;;;;;;;12.10;8.32;;;12.30;99.90;;;;;;5054349;28;20444;-68
2021/05/30 02:33:20;;;;;;;12.75;7.97;;;12.30;99.90;;;;;;5053648;28;20103;-73
2021/05/30 02:35:46;;;;;;;11.48;7.55;;;12.20;99.90;;;;;;5054040;28;20035;-68
2021/05/30 02:38:11;;;;;;;15.52;8.95;;;12.30;99.90;;;;;;5053909;28;20021;-68
2021/05/30 02:40:37;;;;;;;12.18;8.32;;;12.20;99.90;;;;;;5071052;28;20025;-67
2021/05/30 02:43:03;;;;;;;11.20;7.63;;;12.30;99.90;;;;;;5071996;28;20430;-67
2021/05/30 02:45:28;;;;;;;11.10;8.02;;;12.20;99.90;;;;;;5070942;28;20029;-66
2021/05/30 02:47:54;;;;;;;11.70;8.07;;;12.10;99.90;;;;;;5072483;28;20032;-67
2021/05/30 02:50:20;;;;;;;14.45;8.30;;;12.10;99.90;;;;;;5071206;28;20048;-73
2021/05/30 02:52:46;;;;;;;12.20;8.80;;;12.00;99.90;;;;;;5053641;28;20032;-67
2021/05/30 02:55:12;;;;;;;14.23;8.75;;;11.90;99.90;;;;;;5054050;28;20062;-67
2021/05/30 02:57:38;;;;;;;14.15;9.68;;;11.90;99.90;;;;;;5071538;28;20825;-68
2021/05/30 03:00:07;;;;;;;9.75;7.78;;;12.00;99.90;;;;;;5053814;28;20123;-67
2021/05/30 03:02:32;;;;;;;11.70;8.45;;;12.00;99.90;;;;;;5053021;28;20031;-67
2021/05/30 03:04:58;;;;;;;10.48;8.05;;;11.90;99.90;;;;;;5071503;28;20024;-68
2021/05/30 03:07:24;;;;;;;12.50;8.32;;;11.90;99.90;;;;;;5070956;28;20458;-68
2021/05/30 03:09:49;;;;;;;10.68;8.45;;;12.00;99.90;;;;;;5071754;28;20028;-68
2021/05/30 03:12:16;;;;;;;13.93;8.73;;;12.00;99.90;;;;;;5053282;28;20025;-68
2021/05/30 03:14:42;;;;;;;12.20;8.35;;;12.00;99.90;;;;;;5052728;28;20055;-70
2021/05/30 03:17:07;;;;;;;10.73;8.45;;;11.90;99.90;;;;;;5053619;28;20060;-70
2021/05/30 03:19:33;;;;;;;13.10;8.43;;;11.90;99.90;;;;;;5052402;28;20047;-70
2021/05/30 03:21:59;;;;;;;11.27;7.85;;;11.90;99.90;;;;;;5071036;28;20024;-69
2021/05/30 03:24:24;;;;;;;11.55;8.32;;;11.90;99.90;;;;;;5070376;28;20028;-70
2021/05/30 03:26:51;;;;;;;12.30;8.48;;;11.90;99.90;;;;;;5071099;28;20028;-68
2021/05/30 03:29:17;;;;;;;13.90;8.05;;;12.00;99.90;;;;;;5053279;28;20135;-68
2021/05/30 03:31:42;;;;;;;12.75;8.73;;;12.00;99.90;;;;;;5052647;28;20599;-69
2021/05/30 03:34:08;;;;;;;11.52;8.07;;;11.90;99.90;;;;;;5070590;28;20020;-68
2021/05/30 03:36:35;;;;;;;13.40;8.57;;;11.80;99.90;;;;;;5052427;28;20030;-69
2021/05/30 03:39:01;;;;;;;15.38;9.85;;;11.70;99.90;;;;;;5071085;28;20425;-68
2021/05/30 03:41:37;;;;;;;10.18;8.05;;;11.70;99.90;;;;;;5052139;28;20032;-69
2021/05/30 03:44:04;;;;;;;11.27;8.00;;;11.60;99.90;;;;;;5070976;28;20024;-67
2021/05/30 03:46:30;;;;;;;14.50;9.25;;;11.60;99.90;;;;;;5051922;28;20055;-67
2021/05/30 03:48:56;;;;;;;12.10;9.05;;;11.60;99.90;;;;;;5052502;28;20048;-67
2021/05/30 03:51:22;;;;;;;15.02;8.77;;;11.50;99.90;;;;;;5048996;28;20103;-73
2021/05/30 03:53:47;;;;;;;11.00;8.85;;;11.50;99.90;;;;;;5049032;28;20431;-68
2021/05/30 03:56:13;;;;;;;12.93;8.25;;;11.60;99.90;;;;;;5050589;28;20474;-69
2021/05/30 03:58:39;;;;;;;16.15;9.07;;;11.70;99.90;;;;;;5048148;28;20036;-70
2021/05/30 04:01:05;;;;;;;12.55;8.95;;;11.70;99.90;;;;;;5050470;28;20108;-68
2021/05/30 04:03:31;;;;;;;10.85;8.40;;;11.80;99.90;;;;;;5049476;28;20032;-69
2021/05/30 04:05:56;;;;;;;13.10;8.48;;;11.80;99.90;;;;;;5050357;28;20029;-68
2021/05/30 04:08:23;;;;;;;16.40;9.25;;;11.80;99.90;;;;;;5050250;28;20029;-67
2021/05/30 04:10:49;;;;;;;12.43;8.00;;;11.90;99.90;;;;;;5049628;28;20078;-69
2021/05/30 04:13:15;;;;;;;13.00;8.30;;;11.90;99.90;;;;;;5050836;28;20033;-69
2021/05/30 04:15:40;;;;;;;13.40;8.45;;;12.00;99.90;;;;;;5048039;28;20087;-68
2021/05/30 04:18:06;;;;;;;9.65;8.05;;;12.00;99.90;;;;;;5050178;28;20025;-69
2021/05/30 04:20:32;;;;;;;10.25;8.00;;;12.00;99.90;;;;;;5047955;28;20478;-69
2021/05/30 04:22:57;;;;;;;11.90;8.30;;;12.10;99.90;;;;;;5050267;28;20029;-68
2021/05/30 04:25:23;;;;;;;12.88;8.68;;;12.00;99.90;;;;;;5049976;28;20366;-69
2021/05/30 04:27:49;;;;;;;12.32;8.45;;;12.00;99.90;;;;;;5047667;28;20098;-68
2021/05/30 04:30:16;;;;;;;14.43;8.35;;;12.00;99.90;;;;;;5049974;28;20040;-68
2021/05/30 04:32:42;;;;;;;13.48;8.30;;;12.00;99.90;;;;;;5049455;28;20158;-69
2021/05/30 04:35:09;;;;;;;10.95;7.68;;;12.20;99.90;;;;;;5048612;28;20142;-69
2021/05/30 04:37:35;;;;;;;11.43;8.38;;;12.10;99.90;;;;;;5047991;28;20503;-68
2021/05/30 04:40:01;;;;;;;11.48;8.77;;;12.10;99.90;;;;;;5048775;28;20032;-68
2021/05/30 04:42:27;;;;;;;15.27;8.52;;;12.30;99.90;;;;;;5047725;28;20484;-72
2021/05/30 04:44:53;;;;;;;12.35;8.20;;;12.30;99.90;;;;;;5049290;28;20078;-68
2021/05/30 04:47:18;;;;;;;11.32;8.07;;;12.30;99.90;;;;;;5049997;28;20100;-67
2021/05/30 04:49:44;;;;;;;14.32;8.93;;;12.40;99.90;;;;;;5048693;28;21018;-66
2021/05/30 04:52:11;;;;;;;10.57;8.48;;;12.40;99.90;;;;;;5051652;28;20028;-68
2021/05/30 04:54:38;;;;;;;10.93;7.90;;;12.30;99.90;;;;;;5050831;28;20446;-68
2021/05/30 04:57:04;;;;;;;10.55;7.88;;;12.40;99.90;;;;;;5051825;28;20412;-69
2021/05/30 04:59:30;;;;;;;9.55;7.57;;;12.40;99.90;;;;;;5050183;28;20038;-70
2021/05/30 05:01:56;;;;;;;12.65;7.68;;;12.50;99.90;;;;;;5069284;28;20028;-67
2021/05/30 05:04:22;;;;;;;12.57;7.68;;;12.60;99.90;;;;;;5069654;28;20036;-67
2021/05/30 05:06:47;;;;;;;15.50;8.45;;;12.70;99.90;;;;;;5068384;28;20103;-66
2021/05/30 05:09:13;;;;;;;11.23;7.90;;;12.80;99.90;;;;;;5069472;28;20033;-66
2021/05/30 05:11:39;;;;;;;12.90;7.80;;;12.90;99.90;;;;;;5069398;28;20025;-67
2021/05/30 05:14:05;;;;;;;11.13;7.75;;;12.90;99.90;;;;;;5051191;28;20024;-68
2021/05/30 05:16:31;;;;;;;14.73;8.45;;;12.90;99.90;;;;;;5050799;28;20024;-71
2021/05/30 05:18:58;;;;;;;14.13;8.40;;;12.80;99.90;;;;;;5051941;28;20025;-67
2021/05/30 05:21:24;;;;;;;11.07;7.90;;;12.90;99.90;;;;;;5051376;28;20036;-68
2021/05/30 05:23:49;;;;;;;9.95;7.45;;;12.90;99.90;;;;;;5068822;28;20046;-67
2021/05/30 05:26:15;;;;;;;19.52;7.95;;;13.00;99.90;;;;;;5069756;28;20055;-67
2021/05/30 05:28:41;;;;;;;11.25;7.28;;;13.10;99.90;;;;;;5051017;28;20060;-67
2021/05/30 05:31:07;;;;;;;11.88;8.15;;;13.10;99.90;;;;;;5051721;28;20491;-67
2021/05/30 05:33:33;;;;;;;11.60;8.30;;;13.10;99.90;;;;;;5069000;28;20151;-69
2021/05/30 05:35:58;;;;;;;11.85;8.27;;;13.10;99.90;;;;;;5051295;28;20028;-69
2021/05/30 05:38:24;;;;;;;12.57;8.05;;;13.00;99.90;;;;;;5051236;28;20393;-69
2021/05/30 05:40:50;;;;;;;12.80;8.70;;;12.90;99.90;;;;;;5068791;28;20039;-68
2021/05/30 05:43:15;;;;;;;11.07;7.70;;;13.00;99.90;;;;;;5051654;28;20373;-68
2021/05/30 05:45:41;;;;;;;13.15;8.75;;;13.20;99.90;;;;;;5068918;28;20028;-69
2021/05/30 05:48:15;;;;;;;9.55;7.53;;;13.20;99.90;;;;;;5069679;28;20095;-65
2021/05/30 05:50:42;;;;;;;11.00;7.38;;;13.30;99.90;;;;;;5046712;28;20084;-68
2021/05/30 05:53:08;;;;;;;10.00;7.50;;;13.40;99.90;;;;;;5049685;28;20035;-68
2021/05/30 05:55:34;;;;;;;13.32;7.50;;;13.50;99.90;;;;;;5048286;28;20116;-71
2021/05/30 05:58:00;;;;;;;12.85;7.13;;;13.50;99.90;;;;;;5049398;28;20405;-67
2021/05/30 06:00:26;;;;;;;9.70;7.78;;;13.60;99.90;;;;;;5051337;28;20037;-67
2021/05/30 06:02:52;;;;;;;15.00;8.02;;;13.50;99.90;;;;;;5051317;28;20274;-67
2021/05/30 06:05:20;;;;;;;8.50;6.72;;;13.60;99.90;;;;;;5052937;28;20029;-68
2021/05/30 06:07:48;;;;;;;8.77;7.22;;;13.60;99.90;;;;;;5050842;28;20120;-68
2021/05/30 06:10:15;;;;;;;9.20;7.03;;;13.60;99.90;;;;;;5050063;28;20037;-67
2021/05/30 06:12:41;;;;;;;8.95;6.88;;;13.90;99.90;;;;;;5051622;28;20083;-68
2021/05/30 06:15:07;;;;;;;9.30;6.97;;;13.80;99.90;;;;;;5052404;28;20063;-67
2021/05/30 06:17:33;;;;;;;10.48;6.50;;;13.90;99.90;;;;;;5051511;28;20383;-73
2021/05/30 06:19:59;;;;;;;9.57;6.25;;;13.80;99.90;;;;;;5050581;28;20083;-68
2021/05/30 06:22:27;;;;;;;10.27;6.05;;;14.00;99.90;;;;;;5052150;28;20037;-68
2021/05/30 06:24:53;;;;;;;7.40;6.13;;;14.00;99.90;;;;;;5051545;28;20025;-68
2021/05/30 06:27:19;;;;;;;11.20;7.25;;;14.10;99.90;;;;;;5052198;28;20025;-67
2021/05/30 06:29:45;;;;;;;8.82;6.68;;;14.20;99.90;;;;;;5051472;28;20033;-67
2021/05/30 06:32:10;;;;;;;8.88;6.43;;;14.30;99.90;;;;;;5050683;28;20136;-67
2021/05/30 06:34:36;;;;;;;7.70;6.50;;;14.40;99.90;;;;;;5051283;28;20025;-68
2021/05/30 06:37:02;;;;;;;7.93;6.05;;;14.30;99.90;;;;;;5050003;28;20466;-68
2021/05/30 06:39:27;;;;;;;10.35;5.20;;;14.40;99.90;;;;;;5050561;28;20025;-52
2021/05/30 06:41:54;;;;;;;7.72;3.30;;;14.60;99.90;;;;;;5050412;28;20086;-50
2021/05/30 06:44:20;;;;;;;6.20;4.25;;;15.50;99.90;;;;;;5051329;28;20036;-53
2021/05/30 06:46:46;;;;;;;8.68;4.18;;;16.80;99.90;;;;;;5050063;28;20068;-53
2021/05/30 06:49:11;;;;;;;13.77;4.75;;;17.00;99.90;;;;;;5050805;28;20037;-54
2021/05/30 06:51:37;;;;;;;7.53;4.18;;;17.50;99.90;;;;;;5065602;28;20135;-51
2021/05/30 06:54:04;;;;;;;5.57;4.07;;;17.70;99.90;;;;;;5070150;28;20457;-52
2021/05/30 06:56:30;;;;;;;6.35;4.65;;;17.70;99.40;;;;;;5052837;28;20130;-52
2021/05/30 06:58:57;;;;;;;6.47;4.68;;;17.60;98.70;;;;;;5052007;28;20025;-57
2021/05/30 07:01:23;;;;;;;5.82;4.70;;;17.60;98.40;;;;;;5070727;28;20048;-52
2021/05/30 07:03:50;;;;;;;4.93;4.40;;;17.70;97.80;;;;;;5052232;28;20033;-50
2021/05/30 07:06:17;;;;;;;7.95;5.07;;;17.70;98.10;;;;;;5052743;28;20028;-52
2021/05/30 07:08:43;;;;;;;9.75;5.43;;;17.70;97.60;;;;;;5069738;28;20078;-51
2021/05/30 07:11:10;;;;;;;5.50;4.47;;;17.70;97.30;;;;;;5070239;28;20086;-52
2021/05/30 07:13:36;;;;;;;10.27;5.15;;;17.80;96.70;;;;;;5069232;28;20020;-53
2021/05/30 07:16:01;;;;;;;6.97;4.47;;;17.90;97.10;;;;;;5069847;28;20028;-52
2021/05/30 07:18:27;;;;;;;8.63;5.60;;;18.00;97.20;;;;;;5070088;28;20040;-53
2021/05/30 07:20:54;;;;;;;5.57;3.85;;;18.00;96.50;;;;;;5051414;28;20064;-51
2021/05/30 07:23:21;;;;;;;16.08;4.90;;;18.20;97.60;;;;;;5070429;28;20138;-51
2021/05/30 07:25:48;;;;;;;6.78;3.88;;;18.20;97.20;;;;;;5051231;28;20051;-52
2021/05/30 07:28:14;;;;;;;7.50;5.15;;;18.50;97.30;;;;;;5051991;28;20078;-52
2021/05/30 07:30:40;;;;;;;5.95;4.57;;;18.50;96.40;;;;;;5069697;28;20056;-53
2021/05/30 07:33:07;;;;;;;6.18;4.65;;;18.60;96.70;;;;;;5070404;28;20414;-52
2021/05/30 07:35:33;;;;;;;4.55;3.97;;;18.60;95.70;;;;;;5070251;28;20052;-51
2021/05/30 07:37:59;;;;;;;5.78;4.20;;;18.70;95.20;;;;;;5051509;28;20422;-52
2021/05/30 07:40:26;;;;;;;7.13;4.25;;;18.60;95.60;;;;;;5070084;28;20044;-51
2021/05/30 07:42:52;;;;;;;7.93;3.90;;;18.60;95.70;;;;;;5051135;28;20548;-52
2021/05/30 07:45:19;;;;;;;6.30;4.43;;;18.90;95.60;;;;;;5069637;28;20060;-51
2021/05/30 07:47:46;;;;;;;6.28;3.92;;;19.00;95.20;;;;;;5069254;28;20083;-52
2021/05/30 07:50:13;;;;;;;5.15;4.30;;;19.10;94.80;;;;;;5069452;28;20506;-52
2021/05/30 07:52:39;;;;;;;5.72;4.40;;;19.10;94.70;;;;;;5069265;28;20085;-52
2021/05/30 07:55:06;;;;;;;10.18;4.85;;;19.10;94.50;;;;;;5069633;28;20108;-52
2021/05/30 07:57:32;;;;;;;5.97;3.58;;;19.30;94.20;;;;;;5070256;28;20160;-53
2021/05/30 07:59:58;;;;;;;4.93;3.20;;;19.50;94.20;;;;;;5069051;28;20028;-54
2021/05/30 08:02:24;;;;;;;4.97;3.38;;;19.60;93.90;;;;;;5069867;28;20058;-52
2021/05/30 08:04:50;;;;;;;5.80;3.58;;;19.60;93.60;;;;;;5069131;28;20056;-52
2021/05/30 08:07:16;;;;;;;6.38;4.47;;;19.70;93.40;;;;;;5069103;28;20063;-53
2021/05/30 08:09:42;;;;;;;7.63;4.13;;;19.70;92.60;;;;;;5068802;28;20025;-53
2021/05/30 08:12:08;;;;;;;5.70;4.07;;;19.80;93.20;;;;;;5051386;28;20028;-53
2021/05/30 08:14:36;;;;;;;7.13;3.38;;;19.80;92.40;;;;;;5069628;28;20182;-52
2021/05/30 08:17:03;;;;;;;4.80;3.67;;;20.10;92.80;;;;;;5068922;28;20025;-52
2021/05/30 08:19:29;;;;;;;4.13;3.50;;;20.20;92.40;;;;;;5069044;28;20067;-53
2021/05/30 08:21:55;;;;;;;3.40;3.10;;;20.40;92.40;;;;;;5050432;28;20404;-53
2021/05/30 08:24:20;;;;;;;3.70;3.08;;;20.60;92.20;;;;;;5069656;28;20035;-53
2021/05/30 08:26:46;;;;;;;6.35;4.32;;;20.80;91.60;;;;;;5050536;28;20107;-53
2021/05/30 08:29:12;;;;;;;4.07;3.40;;;20.90;90.80;;;;;;5069329;28;20086;-53
2021/05/30 08:31:38;;;;;;;6.97;4.07;;;21.00;91.10;;;;;;5051336;28;20079;-54
2021/05/30 08:34:03;;;;;;;5.40;4.38;;;21.10;90.10;;;;;;5069823;28;20051;-55
2021/05/30 08:36:29;;;;;;;3.55;2.92;;;21.10;90.50;;;;;;5051220;28;20096;-54
2021/05/30 08:38:55;;;;;;;6.03;3.33;;;21.10;90.50;;;;;;5068866;28;20032;-55
2021/05/30 08:41:21;;;;;;;4.80;3.83;;;21.30;90.40;;;;;;5069138;28;20047;-55
2021/05/30 08:43:47;;;;;;;9.57;4.55;;;21.50;90.00;;;;;;5068734;28;20138;-54
2021/05/30 08:46:13;;;;;;;4.40;3.40;;;21.40;89.10;;;;;;5068727;28;20036;-53
2021/05/30 08:48:39;;;;;;;5.65;3.78;;;21.40;89.70;;;;;;5051209;28;20100;-54
2021/05/30 08:51:05;;;;;;;4.13;3.70;;;21.70;87.30;;;;;;5068468;28;20203;-54
2021/05/30 08:53:37;;;;;;;4.22;3.35;;;21.60;82.50;;;;;;5050966;28;20025;-53
2021/05/30 08:56:05;;;;;;;7.13;3.47;;;21.30;84.40;;;;;;5068922;28;20113;-54
2021/05/30 08:58:36;;;;;;;8.25;3.30;;;21.10;86.10;;;;;;5068821;28;20384;-54
2021/05/30 09:01:08;;;;;;;3.90;3.40;;;21.30;87.10;;;;;;5050067;28;20025;-55
2021/05/30 09:04:09;;;;;;;4.05;3.28;;;21.60;86.00;;;;;;5069264;28;20021;-52
2021/05/30 09:06:37;;;;;;;7.72;3.38;;;21.90;83.90;;;;;;5050743;28;20028;-54
2021/05/30 09:09:10;;;;;;;4.25;3.22;;;21.90;84.90;;;;;;5068126;28;20024;-53
2021/05/30 09:11:50;;;;;;;4.32;2.40;;;22.20;83.60;;;;;;5069074;28;20054;-52
2021/05/30 09:14:23;;;;;;;6.38;3.28;;;22.60;83.60;;;;;;5067761;28;20024;-56
2021/05/30 09:17:01;;;;;;;3.80;2.72;;;22.40;80.60;;;;;;5065695;28;20033;-52
2021/05/30 09:19:47;;;;;;;5.38;2.72;;;22.50;82.00;;;;;;5068263;28;20033;-52
2021/05/30 09:22:19;;;;;;;5.53;2.55;;;22.70;79.90;;;;;;5049320;28;20040;-53
2021/05/30 09:24:50;;;;;;;6.78;3.22;;;22.90;82.20;;;;;;5067169;28;20024;-53
2021/05/30 09:27:23;;;;;;;3.15;2.88;;;22.90;79.40;;;;;;5050151;28;20353;-54
2021/05/30 09:30:11;;;;;;;3.88;3.50;;;22.80;78.70;;;;;;5067446;28;20059;-52
2021/05/30 09:32:55;;;;;;;6.15;3.60;;;23.00;77.80;;;;;;5071169;28;20457;-52
2021/05/30 09:35:22;;;;;;;4.82;3.90;;;22.50;78.40;;;;;;5054189;28;20115;-52
2021/05/30 09:38:02;;;;;;;4.68;3.20;;;22.40;79.90;;;;;;5037029;28;20029;-52
2021/05/30 09:40:42;;;;;;;6.28;3.85;;;23.10;79.20;;;;;;5072069;28;20035;-52
2021/05/30 09:43:19;;;;;;;4.53;2.67;;;23.30;77.50;;;;;;5072203;28;20134;-52
2021/05/30 09:46:10;;;;;;;3.72;3.05;;;23.70;77.10;;;;;;5053466;28;20079;-53
2021/05/30 09:49:04;;;;;;;4.03;3.47;;;23.10;76.50;;;;;;5061950;28;20409;-52
2021/05/30 09:51:33;;;;;;;4.63;2.70;;;23.00;74.60;;;;;;5070924;28;20387;-52
2021/05/30 09:54:06;;;;;;;8.45;3.00;;;23.50;74.10;;;;;;5071463;28;20055;-54
2021/05/30 09:56:34;;;;;;;3.72;2.67;;;23.80;74.20;;;;;;5053154;28;20043;-52
2021/05/30 09:59:02;;;;;;;4.93;2.50;;;24.10;71.00;;;;;;5071215;28;20127;-52
2021/05/30 10:01:45;;;;;;;3.47;2.53;;;24.20;71.00;;;;;;5053795;28;20033;-53
2021/05/30 10:04:11;;;;;;;4.13;2.53;;;24.30;70.70;;;;;;5058285;28;20020;-55
2021/05/30 10:06:37;;;;;;;5.72;2.90;;;24.10;70.60;;;;;;5048891;28;20342;-54
2021/05/30 10:09:03;;;;;;;4.68;2.53;;;24.10;70.50;;;;;;5052545;28;20174;-54
2021/05/30 10:11:29;;;;;;;3.92;2.83;;;24.40;69.80;;;;;;5070891;28;20037;-55
2021/05/30 10:13:55;;;;;;;3.10;2.78;;;24.70;68.40;;;;;;5052491;28;20055;-54
2021/05/30 10:16:20;;;;;;;4.00;2.97;;;24.50;69.30;;;;;;5052020;28;20426;-53
2021/05/30 10:18:50;;;;;;;4.03;2.50;;;24.80;68.90;;;;;;5044688;28;20029;-56
2021/05/30 10:21:18;;;;;;;3.03;2.58;;;24.70;68.00;;;;;;5070416;28;20047;-55
2021/05/30 10:23:51;;;;;;;3.75;2.72;;;25.00;68.30;;;;;;5052066;28;20043;-57
2021/05/30 10:26:22;;;;;;;5.03;2.25;;;24.90;66.50;;;;;;5052513;28;20133;-55
2021/05/30 10:28:53;;;;;;;3.95;2.67;;;24.90;67.20;;;;;;5070207;28;20048;-54
2021/05/30 10:31:20;;;;;;;3.33;2.40;;;25.00;65.60;;;;;;5070392;28;20047;-55
2021/05/30 10:34:11;;;;;;;2.53;2.33;;;24.70;65.10;;;;;;5061875;28;20533;-55
2021/05/30 10:36:41;;;;;;;2.90;2.60;;;24.30;66.30;;;;;;5032460;28;20056;-54
2021/05/30 10:39:34;;;;;;;3.95;1.90;;;24.30;67.10;;;;;;5048977;28;20029;-55
2021/05/30 10:42:26;;;;;;;2.45;2.25;;;24.30;64.20;;;;;;5028314;28;20040;-53
2021/05/30 10:44:58;;;;;;;2.15;1.95;;;24.60;61.90;;;;;;5049057;28;20029;-53
2021/05/30 10:47:42;;;;;;;4.38;1.75;;;24.50;64.60;;;;;;5050462;28;20123;-54
2021/05/30 10:50:14;;;;;;;3.17;2.25;;;24.40;62.80;;;;;;5031530;28;20056;-54
2021/05/30 10:52:41;;;;;;;11.93;8.52;;;24.20;63.80;;;;;;5032347;28;20176;-54
2021/05/30 10:55:12;;;;;;;4.10;2.63;;;24.40;62.80;;;;;;5049752;28;20139;-55
2021/05/30 10:57:57;;;;;;;3.30;2.20;;;24.60;62.30;;;;;;5050733;28;20021;-55
2021/05/30 11:00:23;;;;;;;2.95;2.63;;;24.90;62.30;;;;;;5052849;28;20063;-55
2021/05/30 11:03:04;;;;;;;3.28;2.22;;;25.10;61.30;;;;;;5048536;28;20113;-55
2021/05/30 11:05:54;;;;;;;2.65;2.25;;;25.20;62.00;;;;;;5031139;28;20035;-55
2021/05/30 11:08:31;;;;;;;5.80;2.20;;;25.50;59.60;;;;;;5050224;28;20426;-53
2021/05/30 11:11:17;;;;;;;4.75;2.40;;;25.70;60.00;;;;;;5048819;28;20112;-53
2021/05/30 11:13:56;;;;;;;3.25;2.53;;;25.50;59.20;;;;;;5038528;28;20053;-54
2021/05/30 11:16:30;;;;;;;2.53;1.90;;;25.30;59.70;;;;;;5031016;28;20128;-54
2021/05/30 11:19:03;;;;;;;2.08;1.73;;;25.60;58.50;;;;;;5030219;28;20102;-51
2021/05/30 11:21:44;;;;;;;3.97;1.52;;;25.90;58.10;;;;;;5049002;28;20029;-53
2021/05/30 11:24:12;;;;;;;2.83;1.85;;;26.00;57.50;;;;;;5031016;28;20177;-54
2021/05/30 11:26:39;;;;;;;5.75;2.05;;;25.80;58.00;;;;;;5048685;28;20450;-58
2021/05/30 11:29:05;;;;;;;5.22;2.10;;;25.70;57.90;;;;;;5049088;28;20051;-52
2021/05/30 11:31:32;;;;;;;3.90;1.70;;;25.60;57.70;;;;;;5049209;28;20073;-53
2021/05/30 11:34:01;;;;;;;3.38;1.23;;;25.50;56.00;;;;;;5047868;28;20107;-54
2021/05/30 11:36:35;;;;;;;3.75;1.63;;;25.30;54.50;;;;;;5058249;28;20031;-53
2021/05/30 11:39:09;;;;;;;3.10;1.50;;;24.90;54.20;;;;;;5050194;28;20563;-54
2021/05/30 11:41:37;;;;;;;3.35;1.90;;;24.30;55.90;;;;;;5061654;28;20463;-53
2021/05/30 11:44:35;;;;;;;2.17;1.30;;;24.30;55.80;;;;;;5066473;28;20025;-53
2021/05/30 11:47:08;;;;;;;8.85;1.55;;;24.50;54.10;;;;;;5022970;28;20040;-53
2021/05/30 11:49:37;;;;;;;2.35;1.40;;;24.80;55.10;;;;;;5067967;28;20040;-53
2021/05/30 11:52:05;;;;;;;3.42;1.58;;;25.10;54.40;;;;;;5067133;28;20123;-54
2021/05/30 11:54:52;;;;;;;2.83;1.92;;;24.80;53.70;;;;;;5068562;28;20036;-53
2021/05/30 11:57:26;;;;;;;5.57;1.92;;;24.90;53.90;;;;;;5050668;28;20028;-53
2021/05/30 11:59:56;;;;;;;2.40;1.90;;;25.20;54.40;;;;;;5061443;28;20050;-52
2021/05/30 12:02:38;;;;;;;2.22;1.52;;;25.10;52.90;;;;;;5066050;28;20547;-54
2021/05/30 12:05:09;;;;;;;7.55;1.70;;;24.70;54.30;;;;;;5051823;28;20183;-52
2021/05/30 12:07:35;;;;;;;3.40;2.17;;;25.20;55.10;;;;;;5049037;28;20025;-52
2021/05/30 12:10:04;;;;;;;3.65;3.03;;;25.20;53.10;;;;;;5030107;28;20331;-53
2021/05/30 12:12:30;;;;;;;4.25;2.13;;;25.50;52.80;;;;;;5048725;28;20025;-53
2021/05/30 12:15:11;;;;;;;5.05;2.22;;;25.20;51.90;;;;;;5029541;28;20358;-56
2021/05/30 12:17:41;;;;;;;4.03;2.70;;;25.40;52.40;;;;;;5048482;28;20021;-54
2021/05/30 12:20:13;;;;;;;4.95;2.95;;;25.50;52.80;;;;;;5048263;28;20029;-53
2021/05/30 12:22:38;;;;;;;3.38;2.20;;;25.50;51.30;;;;;;5030331;28;20029;-53
2021/05/30 12:25:08;;;;;;;4.20;3.00;;;25.50;51.10;;;;;;5029490;28;20032;-54
2021/05/30 12:27:34;;;;;;;5.70;2.85;;;26.10;52.30;;;;;;5029693;28;20037;-53
2021/05/30 12:30:00;;;;;;;4.88;2.00;;;26.10;50.10;;;;;;5028280;28;20029;-65
2021/05/30 12:32:26;;;;;;;5.18;1.80;;;26.10;49.90;;;;;;5047860;28;20032;-63
2021/05/30 12:34:52;;;;;;;7.80;5.38;;;25.60;50.00;;;;;;5048032;28;20138;-63
2021/05/30 12:37:36;;;;;;;9.68;5.63;;;25.30;51.60;;;;;;5048716;28;20021;-62
2021/05/30 12:40:02;;;;;;;3.72;3.25;;;25.70;52.60;;;;;;5048248;28;20037;-62
2021/05/30 12:42:28;;;;;;;6.28;3.15;;;26.00;51.20;;;;;;5048812;28;20108;-61
2021/05/30 12:44:55;;;;;;;1.95;1.67;;;26.10;51.20;;;;;;5030610;28;20127;-61
2021/05/30 12:47:34;;;;;;;6.47;2.90;;;26.10;50.90;;;;;;5048351;28;20412;-61
2021/05/30 12:50:03;;;;;;;2.67;2.00;;;25.50;51.70;;;;;;5047965;28;20041;-61
2021/05/30 12:52:49;;;;;;;3.55;1.73;;;25.60;51.00;;;;;;5048088;28;20043;-62
2021/05/30 12:55:23;;;;;;;3.50;1.83;;;25.70;50.70;;;;;;5028738;28;20378;-62